Ruskington, United Kingdom
Current Conditions -  °F | °C
As of 2:50 AM on Friday 19 Dec 2014 (Local Time) from EGYD Reporting Station
Broken Clouds Broken Clouds  
Wind Chill: 43°   Ceiling: 5000
Heat Index: 48°   Visibility: 6mi
Dew Point: 46°   Wind: 13mph
Humidity: 93%   Direction: 270°W
Pressure: 29.65"   Gusts: NA
Location:  53.05°N, 0.39°W
Report Text: EGYD 190250Z AUTO 27011KT 9999 // FEW030/// BKN050/// 09/08 Q1004
Loading
Personal Weather Stations






























Interactive Weather Map New forecast layout! Learn more

10-Day Weather Forecast

Advertisements
Track Severe Weather on mobile